sensor_id;sensor_type;location;lat;lon;timestamp;P1;durP1;ratioP1;P2;durP2;ratioP2
67869;SDS011;54673;52.262;6.830;2022-12-01T00:00:28;25.23;;;9.32;;
67869;SDS011;54673;52.262;6.830;2022-12-01T00:02:55;20.30;;;8.60;;
67869;SDS011;54673;52.262;6.830;2022-12-01T00:05:20;19.63;;;8.07;;
67869;SDS011;54673;52.262;6.830;2022-12-01T00:07:49;21.23;;;7.90;;
67869;SDS011;54673;52.262;6.830;2022-12-01T00:10:15;25.23;;;8.77;;
67869;SDS011;54673;52.262;6.830;2022-12-01T00:12:50;22.38;;;7.88;;
67869;SDS011;54673;52.262;6.830;2022-12-01T00:15:19;25.03;;;8.57;;
67869;SDS011;54673;52.262;6.830;2022-12-01T00:17:45;19.90;;;7.97;;
67869;SDS011;54673;52.262;6.830;2022-12-01T00:20:12;21.00;;;8.53;;
67869;SDS011;54673;52.262;6.830;2022-12-01T00:22:42;23.00;;;8.48;;
67869;SDS011;54673;52.262;6.830;2022-12-01T00:25:08;25.17;;;8.63;;
67869;SDS011;54673;52.262;6.830;2022-12-01T00:27:34;22.10;;;8.63;;
67869;SDS011;54673;52.262;6.830;2022-12-01T00:29:59;20.27;;;8.10;;
67869;SDS011;54673;52.262;6.830;2022-12-01T00:32:25;23.07;;;8.53;;
67869;SDS011;54673;52.262;6.830;2022-12-01T00:34:51;22.60;;;9.33;;
67869;SDS011;54673;52.262;6.830;2022-12-01T00:37:16;23.63;;;8.70;;
67869;SDS011;54673;52.262;6.830;2022-12-01T00:39:42;20.60;;;8.53;;
67869;SDS011;54673;52.262;6.830;2022-12-01T00:42:07;25.33;;;8.33;;
67869;SDS011;54673;52.262;6.830;2022-12-01T00:44:33;21.88;;;8.27;;
67869;SDS011;54673;52.262;6.830;2022-12-01T00:46:58;25.33;;;8.57;;
67869;SDS011;54673;52.262;6.830;2022-12-01T00:49:24;19.23;;;8.20;;
67869;SDS011;54673;52.262;6.830;2022-12-01T00:51:49;20.35;;;8.90;;
67869;SDS011;54673;52.262;6.830;2022-12-01T00:54:15;21.17;;;7.83;;
67869;SDS011;54673;52.262;6.830;2022-12-01T00:56:40;19.23;;;8.00;;
67869;SDS011;54673;52.262;6.830;2022-12-01T00:59:06;23.88;;;8.52;;
67869;SDS011;54673;52.262;6.830;2022-12-01T01:01:32;19.97;;;8.17;;
67869;SDS011;54673;52.262;6.830;2022-12-01T01:03:58;22.52;;;8.20;;
67869;SDS011;54673;52.262;6.830;2022-12-01T01:06:24;23.77;;;8.13;;
67869;SDS011;54673;52.262;6.830;2022-12-01T01:08:49;21.67;;;8.60;;
67869;SDS011;54673;52.262;6.830;2022-12-01T01:11:15;19.48;;;8.27;;
67869;SDS011;54673;52.262;6.830;2022-12-01T01:13:40;22.47;;;8.83;;
67869;SDS011;54673;52.262;6.830;2022-12-01T01:16:08;22.05;;;8.75;;
67869;SDS011;54673;52.262;6.830;2022-12-01T01:18:38;21.07;;;7.40;;
67869;SDS011;54673;52.262;6.830;2022-12-01T01:21:05;23.90;;;9.38;;
67869;SDS011;54673;52.262;6.830;2022-12-01T01:23:32;21.73;;;8.23;;
67869;SDS011;54673;52.262;6.830;2022-12-01T01:26:02;20.88;;;8.20;;
67869;SDS011;54673;52.262;6.830;2022-12-01T01:28:29;23.07;;;8.73;;
67869;SDS011;54673;52.262;6.830;2022-12-01T01:30:56;22.00;;;8.85;;
67869;SDS011;54673;52.262;6.830;2022-12-01T01:33:22;21.15;;;8.40;;
67869;SDS011;54673;52.262;6.830;2022-12-01T01:35:47;24.33;;;8.87;;
67869;SDS011;54673;52.262;6.830;2022-12-01T01:38:13;20.33;;;8.63;;
67869;SDS011;54673;52.262;6.830;2022-12-01T01:40:45;20.50;;;8.50;;
67869;SDS011;54673;52.262;6.830;2022-12-01T01:43:12;21.70;;;8.93;;
67869;SDS011;54673;52.262;6.830;2022-12-01T01:45:40;21.73;;;8.38;;
67869;SDS011;54673;52.262;6.830;2022-12-01T01:48:05;23.60;;;9.30;;
67869;SDS011;54673;52.262;6.830;2022-12-01T01:50:32;21.88;;;9.30;;
67869;SDS011;54673;52.262;6.830;2022-12-01T01:53:01;21.40;;;8.80;;
67869;SDS011;54673;52.262;6.830;2022-12-01T01:55:32;21.15;;;8.25;;
67869;SDS011;54673;52.262;6.830;2022-12-01T01:57:59;21.00;;;8.20;;
67869;SDS011;54673;52.262;6.830;2022-12-01T02:00:28;22.07;;;8.77;;
67869;SDS011;54673;52.262;6.830;2022-12-01T02:02:55;21.60;;;8.93;;
67869;SDS011;54673;52.262;6.830;2022-12-01T02:05:25;21.50;;;8.27;;
67869;SDS011;54673;52.262;6.830;2022-12-01T02:07:54;23.15;;;9.25;;
67869;SDS011;54673;52.262;6.830;2022-12-01T02:10:21;20.20;;;8.53;;
67869;SDS011;54673;52.262;6.830;2022-12-01T02:13:01;21.00;;;8.57;;
67869;SDS011;54673;52.262;6.830;2022-12-01T02:21:01;19.35;;;8.98;;
67869;SDS011;54673;52.262;6.830;2022-12-01T02:33:13;21.30;;;8.97;;
67869;SDS011;54673;52.262;6.830;2022-12-01T02:35:21;24.08;;;9.38;;
67869;SDS011;54673;52.262;6.830;2022-12-01T02:38:24;20.90;;;8.23;;
67869;SDS011;54673;52.262;6.830;2022-12-01T02:41:10;18.95;;;8.43;;
67869;SDS011;54673;52.262;6.830;2022-12-01T02:46:27;17.07;;;7.70;;
67869;SDS011;54673;52.262;6.830;2022-12-01T02:49:00;19.83;;;8.57;;
67869;SDS011;54673;52.262;6.830;2022-12-01T02:51:31;18.00;;;8.82;;
67869;SDS011;54673;52.262;6.830;2022-12-01T02:53:59;21.17;;;8.85;;
67869;SDS011;54673;52.262;6.830;2022-12-01T02:56:26;19.50;;;9.10;;
67869;SDS011;54673;52.262;6.830;2022-12-01T02:58:51;21.75;;;8.68;;
67869;SDS011;54673;52.262;6.830;2022-12-01T03:06:44;19.13;;;8.77;;
67869;SDS011;54673;52.262;6.830;2022-12-01T03:11:59;18.93;;;8.70;;
67869;SDS011;54673;52.262;6.830;2022-12-01T03:14:34;24.60;;;9.48;;
67869;SDS011;54673;52.262;6.830;2022-12-01T03:17:35;21.80;;;9.38;;
67869;SDS011;54673;52.262;6.830;2022-12-01T03:20:11;20.83;;;8.73;;
67869;SDS011;54673;52.262;6.830;2022-12-01T03:23:11;19.63;;;8.60;;
67869;SDS011;54673;52.262;6.830;2022-12-01T03:25:41;17.67;;;8.67;;
67869;SDS011;54673;52.262;6.830;2022-12-01T03:28:10;19.92;;;8.70;;
67869;SDS011;54673;52.262;6.830;2022-12-01T03:30:38;17.23;;;8.13;;
67869;SDS011;54673;52.262;6.830;2022-12-01T03:33:12;18.67;;;8.20;;
67869;SDS011;54673;52.262;6.830;2022-12-01T03:35:53;20.65;;;8.73;;
67869;SDS011;54673;52.262;6.830;2022-12-01T03:38:24;18.13;;;8.17;;
67869;SDS011;54673;52.262;6.830;2022-12-01T03:40:51;16.23;;;8.07;;
67869;SDS011;54673;52.262;6.830;2022-12-01T03:43:22;17.20;;;8.20;;
67869;SDS011;54673;52.262;6.830;2022-12-01T03:46:09;18.90;;;8.63;;
67869;SDS011;54673;52.262;6.830;2022-12-01T03:48:42;17.13;;;8.45;;
67869;SDS011;54673;52.262;6.830;2022-12-01T03:51:15;20.43;;;8.27;;
67869;SDS011;54673;52.262;6.830;2022-12-01T03:54:01;16.17;;;7.95;;
67869;SDS011;54673;52.262;6.830;2022-12-01T03:56:32;18.45;;;8.98;;
67869;SDS011;54673;52.262;6.830;2022-12-01T03:59:02;16.97;;;7.80;;
67869;SDS011;54673;52.262;6.830;2022-12-01T04:01:31;17.83;;;9.10;;
67869;SDS011;54673;52.262;6.830;2022-12-01T04:04:07;17.90;;;8.77;;
67869;SDS011;54673;52.262;6.830;2022-12-01T04:06:35;15.98;;;8.23;;
67869;SDS011;54673;52.262;6.830;2022-12-01T04:09:03;16.67;;;8.38;;
67869;SDS011;54673;52.262;6.830;2022-12-01T04:11:28;19.23;;;8.67;;
67869;SDS011;54673;52.262;6.830;2022-12-01T04:14:13;19.65;;;9.65;;
67869;SDS011;54673;52.262;6.830;2022-12-01T04:16:39;15.83;;;8.00;;
67869;SDS011;54673;52.262;6.830;2022-12-01T04:19:04;17.15;;;8.20;;
67869;SDS011;54673;52.262;6.830;2022-12-01T04:21:30;18.97;;;9.43;;
67869;SDS011;54673;52.262;6.830;2022-12-01T04:23:56;19.08;;;9.02;;
67869;SDS011;54673;52.262;6.830;2022-12-01T04:26:25;17.63;;;8.27;;
67869;SDS011;54673;52.262;6.830;2022-12-01T04:28:51;18.08;;;8.85;;
67869;SDS011;54673;52.262;6.830;2022-12-01T04:31:17;17.08;;;8.68;;
67869;SDS011;54673;52.262;6.830;2022-12-01T04:33:42;19.57;;;9.17;;
67869;SDS011;54673;52.262;6.830;2022-12-01T04:36:08;18.47;;;8.47;;
67869;SDS011;54673;52.262;6.830;2022-12-01T04:38:34;18.33;;;8.52;;
67869;SDS011;54673;52.262;6.830;2022-12-01T04:41:01;17.92;;;8.80;;
67869;SDS011;54673;52.262;6.830;2022-12-01T04:43:35;21.03;;;9.07;;
67869;SDS011;54673;52.262;6.830;2022-12-01T04:46:01;16.83;;;8.27;;
67869;SDS011;54673;52.262;6.830;2022-12-01T04:48:27;17.77;;;8.83;;
67869;SDS011;54673;52.262;6.830;2022-12-01T04:50:52;17.30;;;8.43;;
67869;SDS011;54673;52.262;6.830;2022-12-01T04:53:18;15.13;;;8.30;;
67869;SDS011;54673;52.262;6.830;2022-12-01T04:55:43;17.17;;;8.70;;
67869;SDS011;54673;52.262;6.830;2022-12-01T04:58:09;16.25;;;8.98;;
67869;SDS011;54673;52.262;6.830;2022-12-01T05:00:35;19.17;;;9.17;;
67869;SDS011;54673;52.262;6.830;2022-12-01T05:03:01;18.25;;;8.95;;
67869;SDS011;54673;52.262;6.830;2022-12-01T05:05:27;17.10;;;8.00;;
67869;SDS011;54673;52.262;6.830;2022-12-01T05:07:53;17.17;;;9.00;;
67869;SDS011;54673;52.262;6.830;2022-12-01T05:10:19;20.00;;;9.33;;
67869;SDS011;54673;52.262;6.830;2022-12-01T05:12:44;17.40;;;8.50;;
67869;SDS011;54673;52.262;6.830;2022-12-01T05:15:10;22.00;;;9.20;;
67869;SDS011;54673;52.262;6.830;2022-12-01T05:17:36;20.13;;;9.60;;
67869;SDS011;54673;52.262;6.830;2022-12-01T05:20:02;19.40;;;8.67;;
67869;SDS011;54673;52.262;6.830;2022-12-01T05:22:47;19.70;;;9.43;;
67869;SDS011;54673;52.262;6.830;2022-12-01T05:25:13;21.13;;;9.60;;
67869;SDS011;54673;52.262;6.830;2022-12-01T05:27:38;17.52;;;8.45;;
67869;SDS011;54673;52.262;6.830;2022-12-01T05:30:04;17.23;;;9.00;;
67869;SDS011;54673;52.262;6.830;2022-12-01T05:32:30;19.25;;;8.80;;
67869;SDS011;54673;52.262;6.830;2022-12-01T05:34:55;19.13;;;9.43;;
67869;SDS011;54673;52.262;6.830;2022-12-01T05:37:21;20.63;;;9.43;;
67869;SDS011;54673;52.262;6.830;2022-12-01T05:39:47;19.67;;;9.18;;
67869;SDS011;54673;52.262;6.830;2022-12-01T05:42:12;18.70;;;9.63;;
67869;SDS011;54673;52.262;6.830;2022-12-01T05:44:38;18.95;;;9.10;;
67869;SDS011;54673;52.262;6.830;2022-12-01T05:47:03;21.33;;;9.03;;
67869;SDS011;54673;52.262;6.830;2022-12-01T05:49:29;19.13;;;9.10;;
67869;SDS011;54673;52.262;6.830;2022-12-01T05:51:54;19.50;;;9.20;;
67869;SDS011;54673;52.262;6.830;2022-12-01T05:54:20;19.88;;;9.13;;
67869;SDS011;54673;52.262;6.830;2022-12-01T05:56:45;19.07;;;8.73;;
67869;SDS011;54673;52.262;6.830;2022-12-01T05:59:11;19.47;;;8.53;;
67869;SDS011;54673;52.262;6.830;2022-12-01T06:01:36;20.23;;;9.15;;
67869;SDS011;54673;52.262;6.830;2022-12-01T06:04:02;17.23;;;8.43;;
67869;SDS011;54673;52.262;6.830;2022-12-01T06:06:28;18.17;;;8.47;;
67869;SDS011;54673;52.262;6.830;2022-12-01T06:08:53;17.08;;;8.27;;
67869;SDS011;54673;52.262;6.830;2022-12-01T06:11:19;21.40;;;9.27;;
67869;SDS011;54673;52.262;6.830;2022-12-01T06:13:45;19.33;;;9.20;;
67869;SDS011;54673;52.262;6.830;2022-12-01T06:16:11;19.20;;;9.10;;
67869;SDS011;54673;52.262;6.830;2022-12-01T06:18:36;19.17;;;8.70;;
67869;SDS011;54673;52.262;6.830;2022-12-01T06:21:03;16.80;;;7.87;;
67869;SDS011;54673;52.262;6.830;2022-12-01T06:23:30;18.20;;;9.13;;
67869;SDS011;54673;52.262;6.830;2022-12-01T06:25:56;16.90;;;8.33;;
67869;SDS011;54673;52.262;6.830;2022-12-01T06:28:22;19.38;;;8.63;;
67869;SDS011;54673;52.262;6.830;2022-12-01T06:30:47;17.80;;;9.03;;
67869;SDS011;54673;52.262;6.830;2022-12-01T06:33:13;18.40;;;8.48;;
67869;SDS011;54673;52.262;6.830;2022-12-01T06:35:38;20.47;;;8.90;;
67869;SDS011;54673;52.262;6.830;2022-12-01T06:38:04;19.33;;;9.03;;
67869;SDS011;54673;52.262;6.830;2022-12-01T06:40:30;20.70;;;8.98;;
67869;SDS011;54673;52.262;6.830;2022-12-01T06:42:58;17.17;;;8.03;;
67869;SDS011;54673;52.262;6.830;2022-12-01T06:45:25;18.95;;;8.55;;
67869;SDS011;54673;52.262;6.830;2022-12-01T06:47:54;19.13;;;8.47;;
67869;SDS011;54673;52.262;6.830;2022-12-01T06:50:20;19.60;;;8.13;;
67869;SDS011;54673;52.262;6.830;2022-12-01T06:52:47;18.37;;;8.20;;
67869;SDS011;54673;52.262;6.830;2022-12-01T06:55:13;21.15;;;8.90;;
67869;SDS011;54673;52.262;6.830;2022-12-01T06:57:38;18.47;;;8.77;;
67869;SDS011;54673;52.262;6.830;2022-12-01T07:00:05;20.10;;;8.70;;
67869;SDS011;54673;52.262;6.830;2022-12-01T07:02:32;20.57;;;9.10;;
67869;SDS011;54673;52.262;6.830;2022-12-01T07:04:58;19.38;;;8.68;;
67869;SDS011;54673;52.262;6.830;2022-12-01T07:07:23;20.50;;;9.10;;
67869;SDS011;54673;52.262;6.830;2022-12-01T07:09:49;20.08;;;8.90;;
67869;SDS011;54673;52.262;6.830;2022-12-01T07:12:15;18.93;;;9.33;;
67869;SDS011;54673;52.262;6.830;2022-12-01T07:14:40;20.07;;;8.57;;
67869;SDS011;54673;52.262;6.830;2022-12-01T07:17:06;20.42;;;8.70;;
67869;SDS011;54673;52.262;6.830;2022-12-01T07:19:33;19.20;;;8.95;;
67869;SDS011;54673;52.262;6.830;2022-12-01T07:21:59;18.20;;;8.20;;
67869;SDS011;54673;52.262;6.830;2022-12-01T07:24:24;20.50;;;9.53;;
67869;SDS011;54673;52.262;6.830;2022-12-01T07:26:50;18.77;;;8.95;;
67869;SDS011;54673;52.262;6.830;2022-12-01T07:29:15;19.37;;;8.77;;
67869;SDS011;54673;52.262;6.830;2022-12-01T07:31:41;18.10;;;8.60;;
67869;SDS011;54673;52.262;6.830;2022-12-01T07:34:09;16.23;;;8.90;;
67869;SDS011;54673;52.262;6.830;2022-12-01T07:36:36;21.73;;;9.67;;
67869;SDS011;54673;52.262;6.830;2022-12-01T07:39:04;20.58;;;8.73;;
67869;SDS011;54673;52.262;6.830;2022-12-01T07:41:32;17.47;;;8.73;;
67869;SDS011;54673;52.262;6.830;2022-12-01T07:43:58;19.88;;;9.20;;
67869;SDS011;54673;52.262;6.830;2022-12-01T07:46:24;21.23;;;9.23;;
67869;SDS011;54673;52.262;6.830;2022-12-01T07:48:51;18.40;;;8.90;;
67869;SDS011;54673;52.262;6.830;2022-12-01T07:51:18;19.70;;;8.73;;
67869;SDS011;54673;52.262;6.830;2022-12-01T07:53:44;18.07;;;8.37;;
67869;SDS011;54673;52.262;6.830;2022-12-01T07:56:11;19.65;;;8.38;;
67869;SDS011;54673;52.262;6.830;2022-12-01T07:58:38;17.90;;;8.30;;
67869;SDS011;54673;52.262;6.830;2022-12-01T08:01:04;17.83;;;8.23;;
67869;SDS011;54673;52.262;6.830;2022-12-01T08:03:34;16.63;;;8.23;;
67869;SDS011;54673;52.262;6.830;2022-12-01T08:06:01;18.60;;;8.70;;
67869;SDS011;54673;52.262;6.830;2022-12-01T08:08:27;16.75;;;8.05;;
67869;SDS011;54673;52.262;6.830;2022-12-01T08:10:57;20.53;;;8.60;;
67869;SDS011;54673;52.262;6.830;2022-12-01T08:13:28;16.40;;;7.82;;
67869;SDS011;54673;52.262;6.830;2022-12-01T08:15:55;17.23;;;8.63;;
67869;SDS011;54673;52.262;6.830;2022-12-01T08:18:20;19.97;;;9.33;;
67869;SDS011;54673;52.262;6.830;2022-12-01T08:20:47;17.02;;;8.68;;
67869;SDS011;54673;52.262;6.830;2022-12-01T08:23:13;18.77;;;9.00;;
67869;SDS011;54673;52.262;6.830;2022-12-01T08:25:38;20.23;;;9.00;;
67869;SDS011;54673;52.262;6.830;2022-12-01T08:28:04;18.07;;;9.33;;
67869;SDS011;54673;52.262;6.830;2022-12-01T08:30:29;16.10;;;8.03;;
67869;SDS011;54673;52.262;6.830;2022-12-01T08:32:55;16.93;;;8.40;;
67869;SDS011;54673;52.262;6.830;2022-12-01T08:35:22;18.77;;;8.60;;
67869;SDS011;54673;52.262;6.830;2022-12-01T08:37:52;17.50;;;8.00;;
67869;SDS011;54673;52.262;6.830;2022-12-01T08:40:19;18.10;;;8.05;;
67869;SDS011;54673;52.262;6.830;2022-12-01T08:42:44;17.67;;;8.77;;
67869;SDS011;54673;52.262;6.830;2022-12-01T08:45:10;15.80;;;8.05;;
67869;SDS011;54673;52.262;6.830;2022-12-01T08:47:36;16.73;;;8.80;;
67869;SDS011;54673;52.262;6.830;2022-12-01T08:50:01;17.40;;;8.17;;
67869;SDS011;54673;52.262;6.830;2022-12-01T08:52:31;19.23;;;8.73;;
67869;SDS011;54673;52.262;6.830;2022-12-01T08:54:57;16.27;;;7.90;;
67869;SDS011;54673;52.262;6.830;2022-12-01T08:57:23;17.53;;;8.47;;
67869;SDS011;54673;52.262;6.830;2022-12-01T08:59:48;17.60;;;8.65;;
67869;SDS011;54673;52.262;6.830;2022-12-01T09:02:14;19.47;;;8.07;;
67869;SDS011;54673;52.262;6.830;2022-12-01T09:04:42;17.13;;;8.02;;
67869;SDS011;54673;52.262;6.830;2022-12-01T09:07:08;18.37;;;8.50;;
67869;SDS011;54673;52.262;6.830;2022-12-01T09:09:35;16.75;;;7.95;;
67869;SDS011;54673;52.262;6.830;2022-12-01T09:12:01;16.60;;;8.50;;
67869;SDS011;54673;52.262;6.830;2022-12-01T09:14:27;15.50;;;7.80;;
67869;SDS011;54673;52.262;6.830;2022-12-01T09:16:53;17.37;;;8.33;;
67869;SDS011;54673;52.262;6.830;2022-12-01T09:19:19;16.33;;;8.40;;
67869;SDS011;54673;52.262;6.830;2022-12-01T09:21:45;18.40;;;8.68;;
67869;SDS011;54673;52.262;6.830;2022-12-01T09:24:12;16.17;;;7.80;;
67869;SDS011;54673;52.262;6.830;2022-12-01T09:26:39;17.73;;;7.97;;
67869;SDS011;54673;52.262;6.830;2022-12-01T09:29:10;15.17;;;7.63;;
67869;SDS011;54673;52.262;6.830;2022-12-01T09:31:37;15.57;;;7.75;;
67869;SDS011;54673;52.262;6.830;2022-12-01T09:34:04;16.25;;;7.70;;
67869;SDS011;54673;52.262;6.830;2022-12-01T09:36:32;18.40;;;8.30;;
67869;SDS011;54673;52.262;6.830;2022-12-01T09:38:59;19.00;;;8.07;;
67869;SDS011;54673;52.262;6.830;2022-12-01T09:41:29;16.03;;;7.93;;
67869;SDS011;54673;52.262;6.830;2022-12-01T09:46:40;19.95;;;7.88;;
67869;SDS011;54673;52.262;6.830;2022-12-01T09:49:22;13.40;;;7.10;;
67869;SDS011;54673;52.262;6.830;2022-12-01T09:52:10;18.63;;;7.35;;
67869;SDS011;54673;52.262;6.830;2022-12-01T09:54:37;17.63;;;7.43;;
67869;SDS011;54673;52.262;6.830;2022-12-01T09:57:03;13.57;;;6.93;;
67869;SDS011;54673;52.262;6.830;2022-12-01T09:59:34;16.17;;;7.82;;
67869;SDS011;54673;52.262;6.830;2022-12-01T10:02:08;14.13;;;7.20;;
67869;SDS011;54673;52.262;6.830;2022-12-01T10:04:46;14.90;;;7.47;;
67869;SDS011;54673;52.262;6.830;2022-12-01T10:12:16;14.63;;;7.18;;
67869;SDS011;54673;52.262;6.830;2022-12-01T10:14:45;15.40;;;7.03;;
67869;SDS011;54673;52.262;6.830;2022-12-01T10:20:18;12.17;;;6.07;;
67869;SDS011;54673;52.262;6.830;2022-12-01T10:26:02;15.15;;;7.00;;
67869;SDS011;54673;52.262;6.830;2022-12-01T10:34:09;12.43;;;6.53;;
67869;SDS011;54673;52.262;6.830;2022-12-01T10:36:39;15.15;;;6.80;;
67869;SDS011;54673;52.262;6.830;2022-12-01T10:39:05;14.53;;;6.43;;
67869;SDS011;54673;52.262;6.830;2022-12-01T10:41:35;14.07;;;6.40;;
67869;SDS011;54673;52.262;6.830;2022-12-01T10:44:03;13.75;;;6.57;;
67869;SDS011;54673;52.262;6.830;2022-12-01T10:46:48;15.23;;;6.90;;
67869;SDS011;54673;52.262;6.830;2022-12-01T10:49:18;14.32;;;6.55;;
67869;SDS011;54673;52.262;6.830;2022-12-01T10:51:54;11.27;;;6.47;;
67869;SDS011;54673;52.262;6.830;2022-12-01T10:54:22;13.60;;;6.57;;
67869;SDS011;54673;52.262;6.830;2022-12-01T10:56:55;14.93;;;7.18;;
67869;SDS011;54673;52.262;6.830;2022-12-01T10:59:35;12.40;;;6.13;;
67869;SDS011;54673;52.262;6.830;2022-12-01T11:02:16;11.45;;;6.63;;
67869;SDS011;54673;52.262;6.830;2022-12-01T11:04:57;10.43;;;6.00;;
67869;SDS011;54673;52.262;6.830;2022-12-01T11:07:49;12.02;;;6.57;;
67869;SDS011;54673;52.262;6.830;2022-12-01T11:10:29;10.82;;;5.80;;
67869;SDS011;54673;52.262;6.830;2022-12-01T11:15:26;10.88;;;5.78;;
67869;SDS011;54673;52.262;6.830;2022-12-01T11:17:58;16.00;;;6.10;;
67869;SDS011;54673;52.262;6.830;2022-12-01T11:22:51;11.73;;;6.10;;
67869;SDS011;54673;52.262;6.830;2022-12-01T11:25:19;11.37;;;6.00;;
67869;SDS011;54673;52.262;6.830;2022-12-01T11:27:49;14.98;;;6.47;;
67869;SDS011;54673;52.262;6.830;2022-12-01T11:30:25;12.23;;;5.97;;
67869;SDS011;54673;52.262;6.830;2022-12-01T11:32:59;11.85;;;6.40;;
67869;SDS011;54673;52.262;6.830;2022-12-01T11:35:28;12.32;;;6.18;;
67869;SDS011;54673;52.262;6.830;2022-12-01T11:38:00;10.97;;;6.10;;
67869;SDS011;54673;52.262;6.830;2022-12-01T11:40:28;10.65;;;6.50;;
67869;SDS011;54673;52.262;6.830;2022-12-01T11:43:00;14.17;;;6.27;;
67869;SDS011;54673;52.262;6.830;2022-12-01T11:45:30;9.82;;;6.07;;
67869;SDS011;54673;52.262;6.830;2022-12-01T11:50:28;12.83;;;6.53;;
67869;SDS011;54673;52.262;6.830;2022-12-01T11:52:55;11.43;;;6.15;;
67869;SDS011;54673;52.262;6.830;2022-12-01T11:55:24;10.33;;;6.00;;
67869;SDS011;54673;52.262;6.830;2022-12-01T11:57:52;12.43;;;6.60;;
67869;SDS011;54673;52.262;6.830;2022-12-01T12:00:22;12.05;;;5.60;;
67869;SDS011;54673;52.262;6.830;2022-12-01T12:11:40;13.15;;;6.13;;
67869;SDS011;54673;52.262;6.830;2022-12-01T12:14:22;13.00;;;5.88;;
67869;SDS011;54673;52.262;6.830;2022-12-01T12:30:20;11.27;;;6.00;;
67869;SDS011;54673;52.262;6.830;2022-12-01T12:35:46;11.87;;;6.43;;
67869;SDS011;54673;52.262;6.830;2022-12-01T12:46:51;10.43;;;5.60;;
67869;SDS011;54673;52.262;6.830;2022-12-01T12:52:18;9.30;;;5.70;;
67869;SDS011;54673;52.262;6.830;2022-12-01T12:54:53;11.95;;;5.30;;
67869;SDS011;54673;52.262;6.830;2022-12-01T12:57:41;11.50;;;5.20;;
67869;SDS011;54673;52.262;6.830;2022-12-01T13:00:17;11.45;;;5.40;;
67869;SDS011;54673;52.262;6.830;2022-12-01T13:02:56;11.70;;;5.63;;
67869;SDS011;54673;52.262;6.830;2022-12-01T13:08:12;12.05;;;5.25;;
67869;SDS011;54673;52.262;6.830;2022-12-01T13:11:01;11.57;;;5.63;;
67869;SDS011;54673;52.262;6.830;2022-12-01T13:13:56;15.98;;;5.22;;
67869;SDS011;54673;52.262;6.830;2022-12-01T13:16:45;9.35;;;5.15;;
67869;SDS011;54673;52.262;6.830;2022-12-01T13:19:15;10.87;;;5.03;;
67869;SDS011;54673;52.262;6.830;2022-12-01T13:21:53;10.88;;;5.43;;
67869;SDS011;54673;52.262;6.830;2022-12-01T13:24:20;11.30;;;5.63;;
67869;SDS011;54673;52.262;6.830;2022-12-01T13:26:53;13.73;;;5.13;;
67869;SDS011;54673;52.262;6.830;2022-12-01T13:29:22;13.02;;;5.30;;
67869;SDS011;54673;52.262;6.830;2022-12-01T13:31:50;12.63;;;5.33;;
67869;SDS011;54673;52.262;6.830;2022-12-01T13:34:30;14.02;;;5.28;;
67869;SDS011;54673;52.262;6.830;2022-12-01T13:37:06;16.60;;;5.50;;
67869;SDS011;54673;52.262;6.830;2022-12-01T13:39:33;12.00;;;5.28;;
67869;SDS011;54673;52.262;6.830;2022-12-01T13:42:06;10.13;;;5.05;;
67869;SDS011;54673;52.262;6.830;2022-12-01T13:44:56;12.67;;;4.83;;
67869;SDS011;54673;52.262;6.830;2022-12-01T13:47:32;12.98;;;4.80;;
67869;SDS011;54673;52.262;6.830;2022-12-01T14:03:54;19.70;;;5.57;;
67869;SDS011;54673;52.262;6.830;2022-12-01T14:09:04;13.25;;;5.10;;
67869;SDS011;54673;52.262;6.830;2022-12-01T14:11:39;16.47;;;4.87;;
67869;SDS011;54673;52.262;6.830;2022-12-01T14:14:18;8.00;;;4.80;;
67869;SDS011;54673;52.262;6.830;2022-12-01T14:16:51;12.20;;;5.00;;
67869;SDS011;54673;52.262;6.830;2022-12-01T14:19:42;13.57;;;4.80;;
67869;SDS011;54673;52.262;6.830;2022-12-01T14:24:57;11.00;;;4.50;;
67869;SDS011;54673;52.262;6.830;2022-12-01T14:36:56;11.68;;;4.80;;
67869;SDS011;54673;52.262;6.830;2022-12-01T14:41:47;11.18;;;5.47;;
67869;SDS011;54673;52.262;6.830;2022-12-01T14:52:26;9.80;;;5.20;;
67869;SDS011;54673;52.262;6.830;2022-12-01T14:54:58;7.72;;;4.50;;
67869;SDS011;54673;52.262;6.830;2022-12-01T14:57:29;10.53;;;4.40;;
67869;SDS011;54673;52.262;6.830;2022-12-01T15:00:12;9.77;;;4.95;;
67869;SDS011;54673;52.262;6.830;2022-12-01T15:02:46;10.00;;;5.15;;
67869;SDS011;54673;52.262;6.830;2022-12-01T15:05:21;12.37;;;5.50;;
67869;SDS011;54673;52.262;6.830;2022-12-01T15:07:52;10.85;;;5.55;;
67869;SDS011;54673;52.262;6.830;2022-12-01T15:10:30;11.63;;;4.87;;
67869;SDS011;54673;52.262;6.830;2022-12-01T15:16:16;11.65;;;5.43;;
67869;SDS011;54673;52.262;6.830;2022-12-01T15:18:43;9.57;;;4.73;;
67869;SDS011;54673;52.262;6.830;2022-12-01T15:21:13;10.48;;;4.70;;
67869;SDS011;54673;52.262;6.830;2022-12-01T15:23:53;10.53;;;4.77;;
67869;SDS011;54673;52.262;6.830;2022-12-01T15:26:33;10.57;;;5.20;;
67869;SDS011;54673;52.262;6.830;2022-12-01T15:31:40;16.65;;;5.28;;
67869;SDS011;54673;52.262;6.830;2022-12-01T15:34:18;8.80;;;4.40;;
67869;SDS011;54673;52.262;6.830;2022-12-01T15:37:08;15.30;;;4.90;;
67869;SDS011;54673;52.262;6.830;2022-12-01T15:39:51;8.98;;;4.78;;
67869;SDS011;54673;52.262;6.830;2022-12-01T15:42:22;11.50;;;5.20;;
67869;SDS011;54673;52.262;6.830;2022-12-01T15:45:11;11.00;;;4.63;;
67869;SDS011;54673;52.262;6.830;2022-12-01T15:50:25;9.60;;;4.97;;
67869;SDS011;54673;52.262;6.830;2022-12-01T15:52:55;10.63;;;5.43;;
67869;SDS011;54673;52.262;6.830;2022-12-01T15:55:26;14.97;;;6.73;;
67869;SDS011;54673;52.262;6.830;2022-12-01T15:57:54;15.57;;;7.53;;
67869;SDS011;54673;52.262;6.830;2022-12-01T16:00:21;14.15;;;7.63;;
67869;SDS011;54673;52.262;6.830;2022-12-01T16:02:50;17.10;;;7.43;;
67869;SDS011;54673;52.262;6.830;2022-12-01T16:05:23;15.48;;;8.00;;
67869;SDS011;54673;52.262;6.830;2022-12-01T16:07:50;17.53;;;7.43;;
67869;SDS011;54673;52.262;6.830;2022-12-01T16:10:32;20.13;;;7.82;;
67869;SDS011;54673;52.262;6.830;2022-12-01T16:15:59;18.33;;;8.17;;
67869;SDS011;54673;52.262;6.830;2022-12-01T16:18:42;18.85;;;8.65;;
67869;SDS011;54673;52.262;6.830;2022-12-01T16:21:18;20.20;;;8.50;;
67869;SDS011;54673;52.262;6.830;2022-12-01T16:23:44;16.20;;;8.07;;
67869;SDS011;54673;52.262;6.830;2022-12-01T16:26:10;17.70;;;7.93;;
67869;SDS011;54673;52.262;6.830;2022-12-01T16:28:35;18.45;;;8.18;;
67869;SDS011;54673;52.262;6.830;2022-12-01T16:31:02;21.17;;;10.53;;
67869;SDS011;54673;52.262;6.830;2022-12-01T16:33:29;18.38;;;8.60;;
67869;SDS011;54673;52.262;6.830;2022-12-01T16:36:01;20.10;;;8.75;;
67869;SDS011;54673;52.262;6.830;2022-12-01T16:38:27;17.47;;;7.80;;
67869;SDS011;54673;52.262;6.830;2022-12-01T16:41:12;18.63;;;8.88;;
67869;SDS011;54673;52.262;6.830;2022-12-01T16:43:40;17.63;;;8.73;;
67869;SDS011;54673;52.262;6.830;2022-12-01T16:46:08;19.45;;;9.07;;
67869;SDS011;54673;52.262;6.830;2022-12-01T16:48:36;17.93;;;8.80;;
67869;SDS011;54673;52.262;6.830;2022-12-01T16:51:02;18.35;;;9.18;;
67869;SDS011;54673;52.262;6.830;2022-12-01T16:53:29;23.67;;;10.50;;
67869;SDS011;54673;52.262;6.830;2022-12-01T16:55:59;22.85;;;10.45;;
67869;SDS011;54673;52.262;6.830;2022-12-01T16:58:26;23.63;;;10.40;;
67869;SDS011;54673;52.262;6.830;2022-12-01T17:00:52;21.98;;;9.48;;
67869;SDS011;54673;52.262;6.830;2022-12-01T17:03:27;20.73;;;9.60;;
67869;SDS011;54673;52.262;6.830;2022-12-01T17:05:53;21.23;;;10.37;;
67869;SDS011;54673;52.262;6.830;2022-12-01T17:08:19;20.80;;;9.77;;
67869;SDS011;54673;52.262;6.830;2022-12-01T17:10:46;21.67;;;10.03;;
67869;SDS011;54673;52.262;6.830;2022-12-01T17:13:14;22.63;;;9.93;;